Terminal Aerodrome Forecast
Issued by NWS Des Moines, IA

Home | Current Version | Previous Version | Text Only | Print | Product List | Glossary On
Versions: 1 2 3 4 5 6 7 8 9 10 11 12 13 14 15 16 17 18 19 20 21 22 23 24 25
000
FTUS43 KDMX 120650 AAA
TAFDSM
TAF AMD
KDSM 120650Z 1207/1306 VRB04KT 6SM BR VCTS BKN050CB OVC150
     FM120800 VRB04KT 5SM BR VCTS BKN030CB OVC150
     FM121300 24005KT P6SM SCT035 BKN140=

USA.gov is the U.S. government's official web portal to all federal, state and local government web resources and services.